createdAt,value
2022-10-24T00:01:16.205Z,101342.81
2022-10-24T00:03:43.480Z,101336.28
2022-10-24T00:06:12.279Z,101333.97
2022-10-24T00:08:39.828Z,101319.31
2022-10-24T00:11:21.906Z,101318.66
2022-10-24T00:13:49.209Z,101312.47
2022-10-24T00:16:16.146Z,101305.16
2022-10-24T00:18:43.453Z,101310.69
2022-10-24T00:21:10.566Z,101307.78
2022-10-24T00:23:37.736Z,101322.19
2022-10-24T00:26:05.846Z,101313.56
2022-10-24T00:28:35.150Z,101312.91
2022-10-24T00:31:02.542Z,101310.47
2022-10-24T00:33:29.428Z,101308.16
2022-10-24T00:35:56.336Z,101308.28
2022-10-24T00:38:23.305Z,101312.28
2022-10-24T00:40:50.267Z,101321.91
2022-10-24T00:43:20.456Z,101312.75
2022-10-24T00:45:49.537Z,101310.63
2022-10-24T00:48:29.360Z,101321.38
2022-10-24T00:51:01.217Z,101313.72
2022-10-24T00:53:29.989Z,101310.63
2022-10-24T00:56:00.021Z,101317.00
2022-10-24T00:58:29.873Z,101309.34
2022-10-24T01:00:56.834Z,101318.06
2022-10-24T01:03:24.269Z,101309.66
2022-10-24T01:06:03.629Z,101318.66
2022-10-24T01:08:30.436Z,101311.00
2022-10-24T01:11:14.240Z,101308.22
2022-10-24T01:14:22.631Z,101318.78
2022-10-24T01:16:59.029Z,101327.22
2022-10-24T01:19:46.965Z,101316.84
2022-10-24T01:22:46.141Z,101321.25
2022-10-24T01:25:39.066Z,101317.53
2022-10-24T01:28:20.451Z,101311.41
2022-10-24T01:31:01.855Z,101320.88
2022-10-24T01:33:38.192Z,101317.88
2022-10-24T01:36:14.692Z,101310.88
2022-10-24T01:38:46.706Z,101304.41
2022-10-24T01:41:23.400Z,101300.81
2022-10-24T01:43:56.071Z,101307.06
2022-10-24T01:46:32.138Z,101311.75
2022-10-24T01:49:09.122Z,101307.53
2022-10-24T01:51:38.734Z,101305.81
2022-10-24T01:54:06.161Z,101311.50
2022-10-24T01:56:33.323Z,101309.56
2022-10-24T01:59:31.071Z,101307.47
2022-10-24T02:02:30.468Z,101316.59
2022-10-24T02:05:02.741Z,101316.75
2022-10-24T02:07:33.924Z,101317.59
2022-10-24T02:10:05.729Z,101316.81
2022-10-24T02:12:33.018Z,101316.50
2022-10-24T02:15:08.173Z,101320.59
2022-10-24T02:17:35.154Z,101312.59
2022-10-24T02:20:02.825Z,101318.81
2022-10-24T02:22:40.266Z,101328.44
2022-10-24T02:25:14.424Z,101328.13
2022-10-24T02:27:49.012Z,101318.38
2022-10-24T02:30:22.978Z,101316.72
2022-10-24T02:32:53.896Z,101314.59
2022-10-24T02:35:26.637Z,101318.03
2022-10-24T02:38:00.097Z,101330.94
2022-10-24T02:40:27.069Z,101323.41
2022-10-24T02:42:56.429Z,101323.41
2022-10-24T02:45:24.415Z,101328.72
2022-10-24T02:47:56.923Z,101318.47
2022-10-24T02:50:24.321Z,101325.25
2022-10-24T02:52:51.214Z,101335.16
2022-10-24T02:55:18.273Z,101334.78
2022-10-24T02:57:45.162Z,101331.44
2022-10-24T03:00:12.567Z,101333.38
2022-10-24T03:02:39.405Z,101329.25
2022-10-24T03:05:06.629Z,101337.66
2022-10-24T03:25:43.618Z,101319.91
2022-10-24T03:28:10.434Z,101320.53
2022-10-24T03:30:37.286Z,101323.09
2022-10-24T03:33:04.419Z,101320.00
2022-10-24T03:35:31.310Z,101322.38
2022-10-24T03:37:58.319Z,101310.25
2022-10-24T03:40:25.079Z,101317.72
2022-10-24T03:42:51.946Z,101313.63
2022-10-24T03:45:18.894Z,101310.25
2022-10-24T03:47:45.784Z,101312.28
2022-10-24T03:50:12.686Z,101309.41
2022-10-24T03:52:39.532Z,101314.22
2022-10-24T03:55:06.805Z,101304.41
2022-10-24T03:57:33.675Z,101312.38
2022-10-24T04:00:00.511Z,101306.53
2022-10-24T04:02:27.359Z,101309.19
2022-10-24T04:04:54.241Z,101310.13
2022-10-24T04:07:21.052Z,101315.31
2022-10-24T04:09:47.949Z,101314.00
2022-10-24T04:12:15.531Z,101310.94
2022-10-24T04:14:42.452Z,101316.47
2022-10-24T04:17:09.461Z,101310.13
2022-10-24T04:19:36.445Z,101310.41
2022-10-24T04:22:03.392Z,101301.78
2022-10-24T04:24:30.525Z,101300.97
2022-10-24T04:26:57.454Z,101298.59
2022-10-24T04:29:24.493Z,101293.69
2022-10-24T04:31:51.451Z,101302.66
2022-10-24T04:34:18.369Z,101307.44
2022-10-24T04:36:45.205Z,101308.88
2022-10-24T04:39:12.198Z,101309.69
2022-10-24T04:41:39.035Z,101316.47
2022-10-24T04:44:05.865Z,101320.91
2022-10-24T04:46:33.068Z,101333.09
2022-10-24T04:49:02.963Z,101337.19
2022-10-24T04:51:30.121Z,101328.72
2022-10-24T04:53:56.996Z,101335.97
2022-10-24T04:56:26.006Z,101343.44
2022-10-24T04:58:53.141Z,101342.09
2022-10-24T05:01:20.112Z,101353.34
2022-10-24T05:03:47.069Z,101355.72
2022-10-24T05:06:14.325Z,101354.56
2022-10-24T05:08:41.191Z,101360.91
2022-10-24T05:11:09.945Z,101359.69
2022-10-24T05:13:37.540Z,101364.81
2022-10-24T05:16:05.991Z,101360.50
2022-10-24T05:18:32.985Z,101367.94
2022-10-24T05:21:00.600Z,101366.28
2022-10-24T05:23:28.352Z,101367.38
2022-10-24T05:25:55.225Z,101359.03
2022-10-24T05:28:22.038Z,101355.56
2022-10-24T05:30:49.024Z,101343.69
2022-10-24T05:33:15.920Z,101340.78
2022-10-24T05:35:43.345Z,101341.56
2022-10-24T05:38:10.466Z,101341.31
2022-10-24T05:40:37.364Z,101347.19
2022-10-24T05:43:04.294Z,101344.09
2022-10-24T05:45:31.216Z,101346.97
2022-10-24T05:47:58.193Z,101350.84
2022-10-24T05:50:26.749Z,101346.88
2022-10-24T05:52:54.045Z,101348.78
2022-10-24T05:55:20.794Z,101350.97
2022-10-24T05:57:48.137Z,101346.13
2022-10-24T06:00:16.994Z,101353.88
2022-10-24T06:05:16.659Z,101368.19
2022-10-24T06:07:43.889Z,101368.19
2022-10-24T06:10:12.186Z,101369.50
2022-10-24T06:12:39.410Z,101371.63
2022-10-24T06:15:09.065Z,101383.28
2022-10-24T06:17:36.158Z,101376.91
2022-10-24T06:20:03.346Z,101378.47
2022-10-24T06:22:30.188Z,101385.63
2022-10-24T06:24:57.306Z,101385.78
2022-10-24T06:27:24.280Z,101387.78
2022-10-24T06:29:51.132Z,101388.59
2022-10-24T06:32:18.422Z,101393.69
2022-10-24T06:34:45.215Z,101392.50
2022-10-24T06:37:12.207Z,101387.59
2022-10-24T06:39:39.012Z,101402.25
2022-10-24T06:42:05.889Z,101399.09
2022-10-24T06:44:32.874Z,101405.50
2022-10-24T06:46:59.681Z,101401.47
2022-10-24T06:49:26.521Z,101392.97
2022-10-24T06:51:53.833Z,101396.41
2022-10-24T06:54:21.216Z,101393.09
2022-10-24T06:56:49.332Z,101390.47
2022-10-24T06:59:17.753Z,101382.84
2022-10-24T07:01:45.694Z,101378.09
2022-10-24T07:04:12.685Z,101378.31
2022-10-24T07:06:40.351Z,101368.81
2022-10-24T07:09:10.222Z,101368.78
2022-10-24T07:11:39.761Z,101372.59
2022-10-24T07:14:09.146Z,101366.25
2022-10-24T07:16:36.884Z,101374.91
2022-10-24T07:19:04.320Z,101372.81
2022-10-24T07:21:32.992Z,101378.13
2022-10-24T07:24:00.256Z,101373.31
2022-10-24T07:26:28.986Z,101378.00
2022-10-24T07:31:34.817Z,101378.91
2022-10-24T07:34:04.220Z,101376.22
2022-10-24T07:36:31.390Z,101370.31
2022-10-24T07:38:59.226Z,101382.44
2022-10-24T07:41:28.477Z,101378.44
2022-10-24T07:43:57.673Z,101382.66
2022-10-24T07:46:26.339Z,101377.72
2022-10-24T07:48:54.430Z,101393.25
2022-10-24T07:51:22.346Z,101376.03
2022-10-24T07:53:50.014Z,101380.16
2022-10-24T07:56:17.739Z,101384.00
2022-10-24T07:58:46.133Z,101376.97
2022-10-24T08:01:19.221Z,101376.72
2022-10-24T08:03:46.958Z,101387.28
2022-10-24T08:06:17.844Z,101390.16
2022-10-24T08:08:45.272Z,101383.81
2022-10-24T08:11:15.037Z,101382.03
2022-10-24T08:13:42.073Z,101375.47
2022-10-24T08:16:11.713Z,101379.41
2022-10-24T08:18:40.050Z,101370.75
2022-10-24T08:21:09.562Z,101366.53
2022-10-24T08:23:39.253Z,101370.94
2022-10-24T08:26:07.906Z,101367.81
2022-10-24T08:28:35.604Z,101366.44
2022-10-24T08:31:05.370Z,101376.06
2022-10-24T08:33:32.813Z,101372.34
2022-10-24T08:36:02.176Z,101366.63
2022-10-24T08:38:29.713Z,101361.22
2022-10-24T08:40:58.096Z,101353.91
2022-10-24T08:43:25.897Z,101344.84
2022-10-24T08:46:37.148Z,101354.72
2022-10-24T08:49:30.176Z,101351.25
2022-10-24T08:52:05.038Z,101359.56
2022-10-24T08:54:39.816Z,101354.34
2022-10-24T08:57:10.760Z,101347.59
2022-10-24T08:59:38.624Z,101355.09
2022-10-24T09:02:12.620Z,101351.88
2022-10-24T09:04:51.374Z,101357.88
2022-10-24T09:07:22.127Z,101357.31
2022-10-24T09:09:51.881Z,101358.72
2022-10-24T09:12:22.073Z,101365.03
2022-10-24T09:14:59.445Z,101365.16
2022-10-24T09:17:29.305Z,101352.25
2022-10-24T09:20:00.845Z,101357.34
2022-10-24T09:22:32.482Z,101352.81
2022-10-24T09:25:01.839Z,101345.69
2022-10-24T09:27:32.812Z,101344.13
2022-10-24T09:30:00.315Z,101345.66
2022-10-24T09:32:33.492Z,101346.78
2022-10-24T09:35:04.236Z,101344.88
2022-10-24T09:37:47.517Z,101345.41
2022-10-24T09:40:28.082Z,101341.78
2022-10-24T09:43:16.330Z,101340.38
2022-10-24T09:45:50.697Z,101342.53
2022-10-24T09:48:42.177Z,101332.59
2022-10-24T09:51:09.332Z,101335.28
2022-10-24T09:53:41.012Z,101327.81
2022-10-24T09:56:15.239Z,101325.75
2022-10-24T09:58:42.930Z,101326.16
2022-10-24T10:01:23.030Z,101317.84
2022-10-24T10:04:09.495Z,101321.38
2022-10-24T10:06:44.796Z,101317.63
2022-10-24T10:09:14.573Z,101310.94
2022-10-24T10:11:49.339Z,101315.03
2022-10-24T10:14:29.868Z,101302.13
2022-10-24T10:17:02.930Z,101306.41
2022-10-24T10:19:35.049Z,101303.63
2022-10-24T10:22:20.722Z,101307.72
2022-10-24T10:24:47.914Z,101308.09
2022-10-24T10:27:25.676Z,101305.19
2022-10-24T10:30:21.989Z,101302.94
2022-10-24T10:33:14.541Z,101306.28
2022-10-24T10:35:51.700Z,101292.69
2022-10-24T10:38:43.330Z,101302.84
2022-10-24T10:41:22.071Z,101303.69
2022-10-24T10:43:57.881Z,101297.31
2022-10-24T10:46:57.766Z,101293.56
2022-10-24T10:49:30.874Z,101290.53
2022-10-24T10:52:05.885Z,101294.47
2022-10-24T10:54:59.934Z,101289.47
2022-10-24T10:57:32.764Z,101288.78
2022-10-24T11:00:21.505Z,101279.34
2022-10-24T11:03:16.408Z,101278.13
2022-10-24T11:06:01.618Z,101287.59
2022-10-24T11:08:46.588Z,101281.88
2022-10-24T11:11:19.285Z,101284.38
2022-10-24T11:13:54.865Z,101279.56
2022-10-24T11:16:27.273Z,101283.78
2022-10-24T11:18:59.837Z,101272.75
2022-10-24T11:21:30.368Z,101278.25
2022-10-24T11:24:18.635Z,101272.38
2022-10-24T11:26:59.102Z,101269.25
2022-10-24T11:29:51.060Z,101273.13
2022-10-24T11:32:22.015Z,101262.03
2022-10-24T11:34:56.169Z,101269.72
2022-10-24T11:37:36.003Z,101265.28
2022-10-24T11:40:15.741Z,101264.44
2022-10-24T11:42:45.688Z,101263.72
2022-10-24T11:45:16.352Z,101270.19
2022-10-24T11:48:23.405Z,101260.63
2022-10-24T11:50:55.993Z,101247.59
2022-10-24T11:53:45.843Z,101245.22
2022-10-24T11:56:27.146Z,101247.84
2022-10-24T11:59:06.962Z,101253.13
2022-10-24T12:01:55.520Z,101254.56
2022-10-24T12:04:40.472Z,101244.31
2022-10-24T12:07:25.953Z,101248.66
2022-10-24T12:10:30.285Z,101249.13
2022-10-24T12:13:22.281Z,101248.66
2022-10-24T12:16:16.905Z,101239.94
2022-10-24T12:18:46.501Z,101236.63
2022-10-24T12:21:21.048Z,101229.72
2022-10-24T12:24:00.565Z,101228.16
2022-10-24T12:26:35.489Z,101227.88
2022-10-24T12:29:05.609Z,101233.06
2022-10-24T12:31:34.661Z,101234.34
2022-10-24T12:34:19.418Z,101225.63
2022-10-24T12:37:32.547Z,101220.69
2022-10-24T12:39:59.913Z,101228.22
2022-10-24T12:42:26.731Z,101224.16
2022-10-24T12:45:06.221Z,101231.41
2022-10-24T12:47:43.422Z,101232.50
2022-10-24T12:50:22.562Z,101224.53
2022-10-24T12:53:14.029Z,101213.94
2022-10-24T12:55:40.918Z,101214.50
2022-10-24T12:58:25.355Z,101221.00
2022-10-24T13:01:01.607Z,101216.78
2022-10-24T13:03:46.868Z,101215.81
2022-10-24T13:06:45.506Z,101210.09
2022-10-24T13:09:15.936Z,101212.59
2022-10-24T13:12:01.097Z,101216.78
2022-10-24T13:14:36.513Z,101210.41
2022-10-24T13:17:39.541Z,101209.69
2022-10-24T13:20:14.217Z,101200.66
2022-10-24T13:22:45.150Z,101206.34
2022-10-24T13:25:51.585Z,101204.53
2022-10-24T13:28:22.468Z,101216.19
2022-10-24T13:30:53.373Z,101208.34
2022-10-24T13:33:32.412Z,101200.69
2022-10-24T13:36:26.979Z,101201.47
2022-10-24T13:38:58.203Z,101203.28
2022-10-24T13:41:43.234Z,101190.03
2022-10-24T13:44:18.107Z,101187.78
2022-10-24T13:46:57.233Z,101183.19
2022-10-24T13:49:31.275Z,101188.31
2022-10-24T13:52:01.850Z,101184.97
2022-10-24T13:54:35.934Z,101196.94
2022-10-24T13:57:02.780Z,101197.28
2022-10-24T13:59:37.319Z,101192.34
2022-10-24T14:02:15.302Z,101187.56
2022-10-24T14:04:48.026Z,101189.06
2022-10-24T14:07:26.076Z,101189.72
2022-10-24T14:10:21.066Z,101185.75
2022-10-24T14:12:52.094Z,101183.09
2022-10-24T14:15:22.416Z,101187.19
2022-10-24T14:18:08.550Z,101181.56
2022-10-24T14:20:37.198Z,101185.66
2022-10-24T14:23:22.111Z,101184.31
2022-10-24T14:25:55.429Z,101180.13
2022-10-24T14:28:34.397Z,101184.09
2022-10-24T14:31:04.733Z,101178.38
2022-10-24T14:33:41.398Z,101182.84
2022-10-24T14:36:08.966Z,101188.56
2022-10-24T14:38:37.511Z,101192.63
2022-10-24T14:41:10.135Z,101193.56
2022-10-24T14:43:42.872Z,101195.41
2022-10-24T14:46:12.538Z,101192.53
2022-10-24T14:48:49.672Z,101194.84
2022-10-24T14:51:31.965Z,101197.88
2022-10-24T14:54:01.964Z,101190.69
2022-10-24T14:56:30.922Z,101195.19
2022-10-24T14:59:00.011Z,101198.22
2022-10-24T15:01:27.290Z,101190.22
2022-10-24T15:04:03.161Z,101203.09
2022-10-24T15:06:40.325Z,101198.94
2022-10-24T15:09:13.309Z,101211.00
2022-10-24T15:27:41.762Z,101207.50
2022-10-24T15:30:20.785Z,101203.59
2022-10-24T15:32:49.885Z,101207.44
2022-10-24T15:35:18.464Z,101207.88
2022-10-24T15:37:56.793Z,101215.94
2022-10-24T15:40:30.947Z,101212.00
2022-10-24T15:42:57.642Z,101218.97
2022-10-24T15:45:25.016Z,101213.38
2022-10-24T15:47:53.124Z,101215.59
2022-10-24T15:52:52.774Z,101224.56
2022-10-24T15:55:22.508Z,101219.56
2022-10-24T15:57:50.003Z,101222.13
2022-10-24T16:00:20.543Z,101217.72
2022-10-24T16:02:50.177Z,101215.38
2022-10-24T16:05:26.751Z,101220.72
2022-10-24T16:07:54.048Z,101215.25
2022-10-24T16:10:22.691Z,101218.28
2022-10-24T16:12:50.664Z,101219.53
2022-10-24T16:15:28.338Z,101222.31
2022-10-24T16:17:55.816Z,101220.25
2022-10-24T16:20:22.701Z,101224.81
2022-10-24T16:22:50.085Z,101231.97
2022-10-24T16:25:20.750Z,101225.38
2022-10-24T16:27:51.094Z,101227.81
2022-10-24T16:30:20.668Z,101225.03
2022-10-24T16:32:48.374Z,101221.75
2022-10-24T16:35:21.912Z,101224.69
2022-10-24T16:37:48.771Z,101229.34
2022-10-24T16:40:15.970Z,101228.97
2022-10-24T16:42:43.180Z,101222.72
2022-10-24T16:45:10.701Z,101227.13
2022-10-24T16:47:37.707Z,101234.31
2022-10-24T16:50:05.208Z,101238.25
2022-10-24T16:52:32.243Z,101231.97
2022-10-24T16:54:59.094Z,101237.00
2022-10-24T16:57:26.183Z,101234.53
2022-10-24T16:59:52.973Z,101235.94
2022-10-24T17:02:19.842Z,101230.28
2022-10-24T17:04:46.678Z,101233.38
2022-10-24T17:07:14.520Z,101238.75
2022-10-24T17:09:41.501Z,101240.94
2022-10-24T17:12:08.868Z,101236.28
2022-10-24T17:14:37.575Z,101241.16
2022-10-24T17:17:05.149Z,101243.28
2022-10-24T17:19:32.552Z,101240.34
2022-10-24T17:21:59.549Z,101237.06
2022-10-24T17:24:26.959Z,101243.25
2022-10-24T17:26:54.414Z,101230.69
2022-10-24T17:29:33.206Z,101237.31
2022-10-24T17:32:00.743Z,101228.00
2022-10-24T17:34:28.606Z,101224.63
2022-10-24T17:37:13.802Z,101232.53
2022-10-24T17:39:46.414Z,101233.34
2022-10-24T17:42:13.514Z,101234.50
2022-10-24T17:44:40.907Z,101227.28
2022-10-24T17:47:08.122Z,101233.56
2022-10-24T17:49:35.014Z,101229.22
2022-10-24T17:52:02.054Z,101227.75
2022-10-24T17:54:28.893Z,101228.66
2022-10-24T17:56:55.717Z,101214.38
2022-10-24T17:59:22.655Z,101216.22
2022-10-24T18:01:49.759Z,101209.81
2022-10-24T18:04:16.737Z,101211.63
2022-10-24T18:06:43.654Z,101214.47
2022-10-24T18:09:11.538Z,101220.13
2022-10-24T18:11:40.108Z,101211.78
2022-10-24T18:14:07.493Z,101215.16
2022-10-24T18:16:34.555Z,101219.31
2022-10-24T18:19:01.441Z,101210.47
2022-10-24T18:21:28.584Z,101215.09
2022-10-24T18:23:55.933Z,101210.09
2022-10-24T18:26:25.224Z,101211.63
2022-10-24T18:28:54.450Z,101208.53
2022-10-24T18:31:24.530Z,101214.34
2022-10-24T18:33:51.813Z,101211.25
2022-10-24T18:36:24.694Z,101211.25
2022-10-24T18:38:54.214Z,101208.47
2022-10-24T18:41:34.767Z,101213.22
2022-10-24T18:44:13.817Z,101205.28
2022-10-24T18:46:41.145Z,101202.63
2022-10-24T18:49:09.514Z,101204.53
2022-10-24T18:51:41.848Z,101196.84
2022-10-24T18:54:16.971Z,101190.94
2022-10-24T18:56:44.166Z,101191.97
2022-10-24T18:59:13.886Z,101196.38
2022-10-24T19:02:02.567Z,101191.63
2022-10-24T19:04:29.636Z,101192.78
2022-10-24T19:06:59.668Z,101188.44
2022-10-24T19:09:26.945Z,101201.19
2022-10-24T19:11:53.934Z,101192.97
2022-10-24T19:14:21.814Z,101195.91
2022-10-24T19:16:50.799Z,101197.34
2022-10-24T19:19:30.415Z,101197.59
2022-10-24T19:21:57.352Z,101193.09
2022-10-24T19:24:24.214Z,101198.72
2022-10-24T19:26:51.207Z,101207.09
2022-10-24T19:29:18.246Z,101193.72
2022-10-24T19:31:45.815Z,101197.06
2022-10-24T19:34:12.850Z,101200.50
2022-10-24T19:36:39.782Z,101200.38
2022-10-24T19:39:07.101Z,101199.44
2022-10-24T19:41:34.132Z,101195.31
2022-10-24T19:44:01.060Z,101198.41
2022-10-24T19:46:28.209Z,101188.84
2022-10-24T19:48:56.121Z,101191.56
2022-10-24T19:51:23.525Z,101193.06
2022-10-24T19:53:52.056Z,101187.72
2022-10-24T19:56:25.393Z,101188.38
2022-10-24T19:58:54.077Z,101183.63
2022-10-24T20:01:23.852Z,101176.78
2022-10-24T20:03:51.545Z,101176.78
2022-10-24T20:06:24.064Z,101187.78
2022-10-24T20:08:51.037Z,101185.88
2022-10-24T20:11:20.548Z,101176.34
2022-10-24T20:13:48.400Z,101181.41
2022-10-24T20:16:15.194Z,101184.06
2022-10-24T20:18:45.593Z,101185.66
2022-10-24T20:21:15.079Z,101182.69
2022-10-24T20:23:41.932Z,101180.25
2022-10-24T20:26:14.895Z,101182.34
2022-10-24T20:28:44.244Z,101183.38
2022-10-24T20:31:24.461Z,101178.00
2022-10-24T20:33:51.707Z,101176.31
2022-10-24T20:36:21.423Z,101182.63
2022-10-24T20:38:49.499Z,101167.81
2022-10-24T20:41:16.387Z,101176.97
2022-10-24T20:43:43.327Z,101178.25
2022-10-24T20:46:10.554Z,101167.06
2022-10-24T20:48:37.593Z,101174.00
2022-10-24T20:51:15.989Z,101167.75
2022-10-24T20:53:43.489Z,101172.63
2022-10-24T20:56:12.997Z,101167.81
2022-10-24T20:58:42.064Z,101171.91
2022-10-24T21:01:14.904Z,101153.78
2022-10-24T21:03:42.562Z,101162.13
2022-10-24T21:06:21.188Z,101155.75
2022-10-24T21:08:49.347Z,101149.94
2022-10-24T21:11:24.943Z,101146.13
2022-10-24T21:13:56.325Z,101153.53
2022-10-24T21:16:24.621Z,101144.44
2022-10-24T21:18:51.835Z,101142.59
2022-10-24T21:21:20.176Z,101145.22
2022-10-24T21:23:51.213Z,101150.25
2022-10-24T21:26:18.529Z,101149.09
2022-10-24T21:28:45.473Z,101150.00
2022-10-24T21:31:17.490Z,101158.22
2022-10-24T21:33:44.835Z,101138.53
2022-10-24T21:36:14.504Z,101134.69
2022-10-24T21:38:57.149Z,101134.34
2022-10-24T21:41:24.998Z,101138.97
2022-10-24T21:43:52.230Z,101139.31
2022-10-24T21:46:27.213Z,101135.13
2022-10-24T21:48:55.086Z,101133.97
2022-10-24T21:51:24.729Z,101124.81
2022-10-24T21:54:22.049Z,101132.88
2022-10-24T21:56:49.048Z,101131.59
2022-10-24T21:59:19.194Z,101137.28
2022-10-24T22:01:47.966Z,101126.97
2022-10-24T22:04:15.935Z,101129.06
2022-10-24T22:06:43.693Z,101122.03
2022-10-24T22:09:14.587Z,101125.63
2022-10-24T22:11:42.425Z,101127.47
2022-10-24T22:14:11.754Z,101120.81
2022-10-24T22:16:38.890Z,101119.66
2022-10-24T22:19:06.674Z,101110.78
2022-10-24T22:21:38.914Z,101116.81
2022-10-24T22:24:09.166Z,101114.03
2022-10-24T22:26:36.978Z,101107.31
2022-10-24T22:29:04.953Z,101112.81
2022-10-24T22:31:32.117Z,101106.94
2022-10-24T22:33:59.626Z,101103.84
2022-10-24T22:36:43.418Z,101113.41
2022-10-24T22:39:16.456Z,101118.59
2022-10-24T22:41:44.275Z,101108.06
2022-10-24T22:44:12.762Z,101121.75
2022-10-24T22:47:17.026Z,101112.47
2022-10-24T22:50:05.360Z,101117.31
2022-10-24T22:52:32.749Z,101110.81
2022-10-24T22:55:00.030Z,101112.16
2022-10-24T22:57:28.488Z,101114.47
2022-10-24T22:59:55.583Z,101114.78
2022-10-24T23:02:33.187Z,101113.03
2022-10-24T23:05:05.217Z,101108.19
2022-10-24T23:08:09.778Z,101107.53
2022-10-24T23:10:39.671Z,101109.38
2022-10-24T23:13:06.801Z,101107.78
2022-10-24T23:15:34.026Z,101107.19
2022-10-24T23:18:01.168Z,101101.47
2022-10-24T23:20:42.942Z,101103.94
2022-10-24T23:23:28.378Z,101107.53
2022-10-24T23:26:23.211Z,101102.38
2022-10-24T23:29:12.831Z,101100.47
2022-10-24T23:31:39.984Z,101089.75
2022-10-24T23:34:09.650Z,101096.75
2022-10-24T23:36:36.982Z,101086.31
2022-10-24T23:39:04.062Z,101090.25
2022-10-24T23:41:31.230Z,101089.09
2022-10-24T23:43:58.305Z,101100.06
2022-10-24T23:46:37.251Z,101094.19
2022-10-24T23:49:33.267Z,101088.66
2022-10-24T23:52:18.797Z,101085.06
2022-10-24T23:54:45.937Z,101081.84
2022-10-24T23:57:18.180Z,101079.38
2022-10-24T23:59:45.294Z,101083.66
